Time;durP1;ratioP1;P1;durP2;ratioP2;P2;SDS_P1;SDS_P2;PMS_P1;PMS_P2;Temp;Humidity;BMP_temperature;BMP_pressure;BME280_temperature;BME280_humidity;BME280_pressure;Samples;Min_cycle;Max_cycle;Signal;HPM_P1;HPM_P2
2021/12/19 00:00:08;;;;;;;0.10;0.10;;;7.90;99.90;;;;;;5120364;27;21216;-67
2021/12/19 00:03:02;;;;;;;0.10;0.10;;;7.90;99.90;;;;;;5103367;27;20655;-66
2021/12/19 00:08:40;;;;;;;0.10;0.10;;;7.90;99.90;;;;;;5115117;27;20619;-68
2021/12/19 00:11:08;;;;;;;0.10;0.10;;;7.90;99.90;;;;;;5119392;27;20700;-67
2021/12/19 00:13:36;;;;;;;0.10;0.10;;;7.90;99.90;;;;;;5100879;27;20717;-67
2021/12/19 00:16:03;;;;;;;0.07;0.07;;;7.90;99.90;;;;;;5090920;27;20630;-67
2021/12/19 00:18:30;;;;;;;0.10;0.10;;;7.90;99.90;;;;;;5102335;27;20626;-67
2021/12/19 00:20:57;;;;;;;0.10;0.10;;;7.90;99.90;;;;;;5109311;27;21191;-67
2021/12/19 00:23:25;;;;;;;0.10;0.10;;;7.90;99.90;;;;;;5113639;27;20748;-67
2021/12/19 00:25:52;;;;;;;0.10;0.10;;;7.90;99.90;;;;;;5102925;27;20606;-68
2021/12/19 00:28:20;;;;;;;0.00;0.00;;;7.90;99.90;;;;;;5102417;27;20615;-67
2021/12/19 00:30:47;;;;;;;0.03;0.03;;;7.90;99.90;;;;;;5105192;27;20699;-67
2021/12/19 00:33:14;;;;;;;0.10;0.10;;;7.90;99.90;;;;;;5102650;27;20662;-66
2021/12/19 00:35:41;;;;;;;0.10;0.10;;;7.90;99.90;;;;;;5093117;27;20617;-68
2021/12/19 00:38:08;;;;;;;0.10;0.10;;;7.90;99.90;;;;;;5136431;27;20630;-67
2021/12/19 00:40:36;;;;;;;0.10;0.10;;;7.90;99.90;;;;;;5114477;27;20617;-67
2021/12/19 00:43:06;;;;;;;0.10;0.10;;;7.90;99.90;;;;;;5111932;27;20742;-67
2021/12/19 00:45:36;;;;;;;0.10;0.10;;;7.90;99.90;;;;;;5101570;27;20613;-67
2021/12/19 00:48:05;;;;;;;0.00;0.00;;;7.90;99.90;;;;;;5105224;27;20624;-67
2021/12/19 00:50:34;;;;;;;0.10;0.10;;;7.90;99.90;;;;;;5102019;27;20642;-68
2021/12/19 00:53:01;;;;;;;0.10;0.10;;;7.90;99.90;;;;;;5100619;27;20661;-67
2021/12/19 00:55:28;;;;;;;0.10;0.10;;;7.90;99.90;;;;;;5116260;27;20670;-66
2021/12/19 00:57:56;;;;;;;0.10;0.10;;;7.90;99.90;;;;;;5114828;27;20612;-67
2021/12/19 01:00:27;;;;;;;0.10;0.10;;;7.90;99.90;;;;;;5099398;27;20634;-67
2021/12/19 01:02:58;;;;;;;0.00;0.00;;;7.90;99.90;;;;;;5100951;27;20646;-67
2021/12/19 01:05:26;;;;;;;0.00;0.00;;;7.90;99.90;;;;;;5093197;27;20663;-67
2021/12/19 01:07:53;;;;;;;0.10;0.10;;;7.90;99.90;;;;;;5101729;27;20631;-67
2021/12/19 01:10:20;;;;;;;0.10;0.10;;;7.90;99.90;;;;;;5096250;27;20713;-67
2021/12/19 01:12:47;;;;;;;0.00;0.00;;;7.90;99.90;;;;;;5101305;27;20731;-67
2021/12/19 01:15:16;;;;;;;0.00;0.00;;;7.90;99.90;;;;;;5103929;27;20617;-67
2021/12/19 01:17:43;;;;;;;0.03;0.03;;;7.90;99.90;;;;;;5102052;27;20625;-66
2021/12/19 01:20:16;;;;;;;0.10;0.10;;;7.90;99.90;;;;;;5092274;27;20650;-65
2021/12/19 01:22:44;;;;;;;0.10;0.10;;;7.80;99.90;;;;;;5102399;27;20653;-65
2021/12/19 01:25:13;;;;;;;0.10;0.10;;;7.80;99.90;;;;;;5119940;27;20630;-65
2021/12/19 01:27:40;;;;;;;0.10;0.10;;;7.80;99.90;;;;;;5093235;27;20614;-66
2021/12/19 01:30:09;;;;;;;0.10;0.10;;;7.80;99.90;;;;;;5092247;27;20646;-66
2021/12/19 01:32:37;;;;;;;0.10;0.10;;;7.80;99.90;;;;;;5104616;27;20658;-67
2021/12/19 01:35:05;;;;;;;0.10;0.10;;;7.80;99.90;;;;;;5094167;27;20634;-66
2021/12/19 01:37:34;;;;;;;0.10;0.10;;;7.80;99.90;;;;;;5100939;27;20632;-67
2021/12/19 01:40:01;;;;;;;0.10;0.10;;;7.80;99.90;;;;;;5119401;27;20607;-67
2021/12/19 01:42:31;;;;;;;0.10;0.10;;;7.70;99.90;;;;;;5104302;27;20649;-67
2021/12/19 01:44:59;;;;;;;0.10;0.10;;;7.80;99.90;;;;;;5102955;27;20665;-66
2021/12/19 01:47:26;;;;;;;0.10;0.10;;;7.70;99.90;;;;;;5099254;27;20654;-66
2021/12/19 01:49:55;;;;;;;0.10;0.10;;;7.70;99.90;;;;;;5113294;27;20626;-66
2021/12/19 01:52:28;;;;;;;0.10;0.10;;;7.70;99.90;;;;;;5109155;27;21128;-66
2021/12/19 01:54:58;;;;;;;0.10;0.10;;;7.70;99.90;;;;;;5118461;27;20610;-66
2021/12/19 01:57:25;;;;;;;0.10;0.10;;;7.70;99.90;;;;;;5102182;27;20630;-66
2021/12/19 01:59:52;;;;;;;0.10;0.10;;;7.70;99.90;;;;;;5102844;27;20642;-66
2021/12/19 02:02:20;;;;;;;0.10;0.10;;;7.60;99.90;;;;;;5093090;27;20722;-67
2021/12/19 02:04:47;;;;;;;0.10;0.10;;;7.70;99.90;;;;;;5101815;27;20629;-66
2021/12/19 02:07:15;;;;;;;0.10;0.10;;;7.60;99.90;;;;;;5120365;27;20615;-66
2021/12/19 02:09:43;;;;;;;0.10;0.10;;;7.60;99.90;;;;;;5100133;27;20631;-66
2021/12/19 02:12:11;;;;;;;0.10;0.10;;;7.70;99.90;;;;;;5100472;27;20682;-68
2021/12/19 02:14:39;;;;;;;0.10;0.10;;;7.60;99.90;;;;;;5100428;27;20646;-66
2021/12/19 02:17:06;;;;;;;0.10;0.10;;;7.60;99.90;;;;;;5116792;27;20647;-67
2021/12/19 02:19:34;;;;;;;0.10;0.10;;;7.60;99.90;;;;;;5101152;27;20657;-67
2021/12/19 02:22:02;;;;;;;0.10;0.10;;;7.60;99.90;;;;;;5108095;27;20646;-66
2021/12/19 02:24:29;;;;;;;0.10;0.10;;;7.60;99.90;;;;;;5102660;27;20618;-66
2021/12/19 02:26:56;;;;;;;0.00;0.00;;;7.70;99.90;;;;;;5100552;27;20667;-67
2021/12/19 02:29:23;;;;;;;0.10;0.10;;;7.60;99.90;;;;;;5100747;27;20623;-66
2021/12/19 02:31:50;;;;;;;0.10;0.10;;;7.60;99.90;;;;;;5120789;27;20650;-67
2021/12/19 02:34:21;;;;;;;0.10;0.10;;;7.60;99.90;;;;;;5098605;27;20657;-67
2021/12/19 02:36:57;;;;;;;0.00;0.00;;;7.60;99.90;;;;;;5118477;27;20599;-66
2021/12/19 02:50:25;;;;;;;0.10;0.10;;;7.50;99.90;;;;;;5109978;27;20649;-67
2021/12/19 02:52:53;;;;;;;0.10;0.10;;;7.50;99.90;;;;;;5118967;27;20812;-67
2021/12/19 02:55:22;;;;;;;0.10;0.10;;;7.50;99.90;;;;;;5102259;27;20659;-67
2021/12/19 02:57:50;;;;;;;0.00;0.00;;;7.50;99.90;;;;;;5102214;27;20630;-66
2021/12/19 03:00:22;;;;;;;0.10;0.10;;;7.50;99.90;;;;;;5102200;27;20713;-67
2021/12/19 03:02:50;;;;;;;0.00;0.00;;;7.40;99.90;;;;;;5100894;27;20677;-67
2021/12/19 03:05:17;;;;;;;0.10;0.10;;;7.40;99.90;;;;;;5098971;28;20658;-68
2021/12/19 03:07:44;;;;;;;0.10;0.10;;;7.40;99.90;;;;;;5102197;27;20758;-67
2021/12/19 03:10:54;;;;;;;0.10;0.10;;;7.40;99.90;;;;;;5101557;28;20618;-67
2021/12/19 03:13:30;;;;;;;0.10;0.10;;;7.40;99.90;;;;;;5100418;28;20665;-67
2021/12/19 03:18:42;;;;;;;0.10;0.10;;;7.30;99.90;;;;;;5109564;28;20618;-67
2021/12/19 03:21:13;;;;;;;0.10;0.10;;;7.30;99.90;;;;;;5089631;28;21216;-67
2021/12/19 03:23:40;;;;;;;0.10;0.10;;;7.30;99.90;;;;;;5116705;28;21236;-67
2021/12/19 03:26:07;;;;;;;0.10;0.10;;;7.30;99.90;;;;;;5102265;28;20618;-66
2021/12/19 03:28:36;;;;;;;0.10;0.10;;;7.30;99.90;;;;;;5101551;28;20614;-67
2021/12/19 03:31:03;;;;;;;0.10;0.10;;;7.30;99.90;;;;;;5101294;28;20741;-67
2021/12/19 03:33:31;;;;;;;0.10;0.10;;;7.30;99.90;;;;;;5092058;28;20676;-67
2021/12/19 03:35:58;;;;;;;0.10;0.10;;;7.30;99.90;;;;;;5120446;28;20613;-67
2021/12/19 03:38:26;;;;;;;0.10;0.10;;;7.30;99.90;;;;;;5117822;28;20700;-66
2021/12/19 03:41:07;;;;;;;0.10;0.10;;;7.30;99.90;;;;;;5101016;28;20623;-67
2021/12/19 03:43:36;;;;;;;0.10;0.10;;;7.40;99.90;;;;;;5130044;27;20656;-67
2021/12/19 03:46:03;;;;;;;0.10;0.10;;;7.40;99.90;;;;;;5102305;28;20741;-67
2021/12/19 03:48:31;;;;;;;0.10;0.10;;;7.40;99.90;;;;;;5100052;28;20645;-67
2021/12/19 03:50:59;;;;;;;0.10;0.10;;;7.40;99.90;;;;;;5099716;28;20630;-67
2021/12/19 03:53:27;;;;;;;0.10;0.10;;;7.40;99.90;;;;;;5101441;28;20718;-66
2021/12/19 03:55:54;;;;;;;0.10;0.10;;;7.40;99.90;;;;;;5100156;28;20622;-67
2021/12/19 03:58:21;;;;;;;0.10;0.10;;;7.40;99.90;;;;;;5098633;28;20647;-66
2021/12/19 04:00:51;;;;;;;0.10;0.10;;;7.40;99.90;;;;;;5097729;28;21018;-67
2021/12/19 04:03:20;;;;;;;0.10;0.10;;;7.40;99.90;;;;;;5120191;28;20633;-67
2021/12/19 04:05:48;;;;;;;0.10;0.10;;;7.40;99.90;;;;;;5099564;28;20611;-67
2021/12/19 04:08:16;;;;;;;0.10;0.10;;;7.40;99.90;;;;;;5100078;28;20622;-66
2021/12/19 04:10:43;;;;;;;0.10;0.10;;;7.40;99.90;;;;;;5094240;28;20622;-67
2021/12/19 04:13:10;;;;;;;0.10;0.10;;;7.40;99.90;;;;;;5100813;28;20701;-66
2021/12/19 04:15:37;;;;;;;0.10;0.10;;;7.40;99.90;;;;;;5101322;28;20658;-66
2021/12/19 04:18:06;;;;;;;0.10;0.10;;;7.40;99.90;;;;;;5118625;27;20606;-67
2021/12/19 04:20:33;;;;;;;0.10;0.10;;;7.40;99.90;;;;;;5120723;27;20598;-67
2021/12/19 04:23:01;;;;;;;0.10;0.10;;;7.40;99.90;;;;;;5103039;27;20665;-68
2021/12/19 04:25:28;;;;;;;0.10;0.10;;;7.40;99.90;;;;;;5105879;27;20618;-66
2021/12/19 04:27:55;;;;;;;0.10;0.10;;;7.50;99.90;;;;;;5100655;27;21044;-66
2021/12/19 04:30:24;;;;;;;0.10;0.10;;;7.50;99.90;;;;;;5102852;27;20625;-66
2021/12/19 04:32:59;;;;;;;0.10;0.10;;;7.50;99.90;;;;;;5121176;27;20673;-68
2021/12/19 04:35:31;;;;;;;0.10;0.10;;;7.50;99.90;;;;;;5104159;27;20674;-67
2021/12/19 04:38:31;;;;;;;0.10;0.10;;;7.50;99.90;;;;;;5095116;27;20675;-67
2021/12/19 04:41:11;;;;;;;0.10;0.10;;;7.50;99.90;;;;;;5114768;27;20614;-67
2021/12/19 04:52:18;;;;;;;0.10;0.10;;;7.50;99.90;;;;;;5122353;27;20733;-67
2021/12/19 04:54:58;;;;;;;0.10;0.10;;;7.50;99.90;;;;;;5094694;27;20606;-67
2021/12/19 04:57:34;;;;;;;0.10;0.10;;;7.50;99.90;;;;;;5122377;27;20586;-67
2021/12/19 05:00:05;;;;;;;0.10;0.10;;;7.50;99.90;;;;;;5105540;27;20634;-67
2021/12/19 05:02:44;;;;;;;0.10;0.10;;;7.50;99.90;;;;;;5100524;27;20688;-67
2021/12/19 05:16:08;;;;;;;0.10;0.10;;;7.50;99.90;;;;;;5112961;27;20697;-67
2021/12/19 05:18:38;;;;;;;0.10;0.10;;;7.50;99.90;;;;;;5124252;27;20601;-67
2021/12/19 05:21:12;;;;;;;0.10;0.10;;;7.50;99.90;;;;;;5122760;27;20610;-68
2021/12/19 05:24:02;;;;;;;0.10;0.10;;;7.50;99.90;;;;;;5103258;27;20650;-68
2021/12/19 05:26:27;;;;;;;0.10;0.10;;;7.50;99.90;;;;;;5103990;27;20713;-67
2021/12/19 05:28:54;;;;;;;0.10;0.10;;;7.50;99.90;;;;;;5104457;27;20625;-66
2021/12/19 05:31:22;;;;;;;0.10;0.10;;;7.50;99.90;;;;;;5103509;27;20729;-67
2021/12/19 05:33:49;;;;;;;0.10;0.10;;;7.50;99.90;;;;;;5104743;27;20654;-68
2021/12/19 05:47:16;;;;;;;0.10;0.10;;;7.50;99.90;;;;;;5108344;27;20618;-67
2021/12/19 05:49:44;;;;;;;0.00;0.00;;;7.50;99.90;;;;;;5112903;27;20614;-66
2021/12/19 05:52:12;;;;;;;0.10;0.10;;;7.50;99.90;;;;;;5100948;27;20792;-67
2021/12/19 05:54:40;;;;;;;0.00;0.00;;;7.50;99.90;;;;;;5103974;27;20629;-67
2021/12/19 05:57:07;;;;;;;0.10;0.10;;;7.50;99.90;;;;;;5103389;27;20630;-68
2021/12/19 05:59:34;;;;;;;0.10;0.10;;;7.60;99.90;;;;;;5120849;27;20653;-67
2021/12/19 06:02:01;;;;;;;0.10;0.10;;;7.50;99.90;;;;;;5121122;27;20673;-67
2021/12/19 06:04:28;;;;;;;0.10;0.10;;;7.60;99.90;;;;;;5104158;27;20618;-67
2021/12/19 06:06:55;;;;;;;0.00;0.00;;;7.60;99.90;;;;;;5104645;27;21196;-67
2021/12/19 06:09:23;;;;;;;0.10;0.10;;;7.60;99.90;;;;;;5096919;27;20622;-67
2021/12/19 06:11:51;;;;;;;0.10;0.10;;;7.50;99.90;;;;;;5114599;27;20650;-68
2021/12/19 06:14:18;;;;;;;0.10;0.10;;;7.50;99.90;;;;;;5122956;27;20661;-67
2021/12/19 06:16:46;;;;;;;0.10;0.10;;;7.50;99.90;;;;;;5105484;27;20614;-67
2021/12/19 06:19:15;;;;;;;0.10;0.10;;;7.60;99.90;;;;;;5105466;27;20706;-67
2021/12/19 06:21:42;;;;;;;0.10;0.10;;;7.50;99.90;;;;;;5122746;27;20740;-68
2021/12/19 06:24:09;;;;;;;0.10;0.10;;;7.60;99.90;;;;;;5106372;27;20618;-66
2021/12/19 06:26:37;;;;;;;0.10;0.10;;;7.50;99.90;;;;;;5123126;27;20705;-67
2021/12/19 06:29:05;;;;;;;0.10;0.10;;;7.50;99.90;;;;;;5103766;27;20618;-66
2021/12/19 06:31:33;;;;;;;0.00;0.00;;;7.50;99.90;;;;;;5102734;27;20982;-67
2021/12/19 06:34:00;;;;;;;0.10;0.10;;;7.50;99.90;;;;;;5113363;27;20658;-67
2021/12/19 06:36:28;;;;;;;0.10;0.10;;;7.50;99.90;;;;;;5105465;27;20735;-66
2021/12/19 06:38:55;;;;;;;0.10;0.10;;;7.50;99.90;;;;;;5103782;27;20638;-67
2021/12/19 06:41:22;;;;;;;0.10;0.10;;;7.50;99.90;;;;;;5121774;27;20671;-67
2021/12/19 06:43:50;;;;;;;0.10;0.10;;;7.50;99.90;;;;;;5124349;27;20598;-67
2021/12/19 06:46:21;;;;;;;0.03;0.03;;;7.50;99.90;;;;;;5101267;27;20730;-67
2021/12/19 06:48:49;;;;;;;0.10;0.10;;;7.40;99.90;;;;;;5122250;27;20639;-67
2021/12/19 06:51:16;;;;;;;0.10;0.10;;;7.50;99.90;;;;;;5103820;27;21309;-68
2021/12/19 06:53:44;;;;;;;0.10;0.10;;;7.50;99.90;;;;;;5125080;27;20638;-67
2021/12/19 06:56:12;;;;;;;0.10;0.10;;;7.50;99.90;;;;;;5104067;27;20632;-66
2021/12/19 06:58:39;;;;;;;0.10;0.10;;;7.50;99.90;;;;;;5122662;27;20629;-67
2021/12/19 07:01:07;;;;;;;0.00;0.00;;;7.50;99.90;;;;;;5103477;27;20622;-68
2021/12/19 07:03:36;;;;;;;0.00;0.00;;;7.50;99.90;;;;;;5103434;27;20685;-67
2021/12/19 07:06:03;;;;;;;0.10;0.10;;;7.50;99.90;;;;;;5102726;28;21255;-67
2021/12/19 07:08:30;;;;;;;0.00;0.00;;;7.50;99.90;;;;;;5104455;27;20669;-67
2021/12/19 07:10:57;;;;;;;0.00;0.00;;;7.50;99.90;;;;;;5097254;27;20622;-67
2021/12/19 07:13:24;;;;;;;0.03;0.03;;;7.50;99.90;;;;;;5105176;28;20689;-67
2021/12/19 07:15:55;;;;;;;0.10;0.10;;;7.50;99.90;;;;;;5121892;27;20697;-66
2021/12/19 07:18:23;;;;;;;0.10;0.10;;;7.50;99.90;;;;;;5102894;28;20644;-67
2021/12/19 07:20:51;;;;;;;0.00;0.00;;;7.50;99.90;;;;;;5104441;28;20634;-67
2021/12/19 07:23:20;;;;;;;0.10;0.10;;;7.50;99.90;;;;;;5121136;28;21221;-67
2021/12/19 07:25:50;;;;;;;0.00;0.00;;;7.50;99.90;;;;;;5122479;28;21143;-67
2021/12/19 07:28:17;;;;;;;0.10;0.10;;;7.50;99.90;;;;;;5103514;28;20626;-67
2021/12/19 07:30:44;;;;;;;0.10;0.10;;;7.50;99.90;;;;;;5122861;28;20606;-66
2021/12/19 07:33:12;;;;;;;0.10;0.10;;;7.60;99.90;;;;;;5102086;28;20679;-66
2021/12/19 07:35:45;;;;;;;0.10;0.10;;;7.50;99.90;;;;;;5103259;28;20614;-65
2021/12/19 07:38:23;;;;;;;0.10;0.10;;;7.50;99.90;;;;;;5103223;28;20629;-66
2021/12/19 07:40:50;;;;;;;0.10;0.10;;;7.50;99.90;;;;;;5103477;28;20603;-66
2021/12/19 07:43:18;;;;;;;0.10;0.10;;;7.50;99.90;;;;;;5100759;28;21292;-66
2021/12/19 07:45:45;;;;;;;0.10;0.10;;;7.60;99.90;;;;;;5102417;28;20714;-66
2021/12/19 07:48:13;;;;;;;0.10;0.10;;;7.60;99.90;;;;;;5104377;28;21226;-66
2021/12/19 07:50:40;;;;;;;0.10;0.10;;;7.60;99.90;;;;;;5104794;28;20679;-66
2021/12/19 07:53:08;;;;;;;0.10;0.10;;;7.60;99.90;;;;;;5102176;27;20675;-66
2021/12/19 07:55:37;;;;;;;0.10;0.10;;;7.60;99.90;;;;;;5115404;27;20624;-65
2021/12/19 07:58:05;;;;;;;0.10;0.10;;;7.60;99.90;;;;;;5106714;27;20632;-65
2021/12/19 08:00:32;;;;;;;0.00;0.00;;;7.60;99.90;;;;;;5101533;27;20637;-65
2021/12/19 08:02:59;;;;;;;0.10;0.10;;;7.60;99.90;;;;;;5105987;27;20661;-66
2021/12/19 08:05:26;;;;;;;0.10;0.10;;;7.60;99.90;;;;;;5107423;27;20629;-66
2021/12/19 08:08:00;;;;;;;0.10;0.10;;;7.60;99.90;;;;;;5106109;27;21203;-67
2021/12/19 08:13:15;;;;;;;0.10;0.10;;;7.70;99.90;;;;;;5124939;27;20661;-66
2021/12/19 08:15:44;;;;;;;0.10;0.10;;;7.70;99.90;;;;;;5106611;27;20621;-66
2021/12/19 08:18:11;;;;;;;0.10;0.10;;;7.70;99.90;;;;;;5123988;27;20598;-65
2021/12/19 08:20:38;;;;;;;0.00;0.00;;;7.70;99.90;;;;;;5106953;27;20622;-66
2021/12/19 08:23:05;;;;;;;0.00;0.00;;;7.70;99.90;;;;;;5124162;27;20648;-67
2021/12/19 08:25:33;;;;;;;0.10;0.10;;;7.70;99.90;;;;;;5107549;27;20879;-67
2021/12/19 08:28:00;;;;;;;0.10;0.10;;;7.70;99.90;;;;;;5113642;27;20625;-67
2021/12/19 08:30:29;;;;;;;0.10;0.10;;;7.70;99.90;;;;;;5125743;27;20618;-67
2021/12/19 08:32:56;;;;;;;0.10;0.10;;;7.70;99.90;;;;;;5105439;27;20721;-68
2021/12/19 08:35:24;;;;;;;0.10;0.10;;;7.70;99.90;;;;;;5106003;27;20649;-68
2021/12/19 08:37:51;;;;;;;0.10;0.10;;;7.70;99.90;;;;;;5106697;27;20627;-67
2021/12/19 08:40:19;;;;;;;0.00;0.00;;;7.80;99.90;;;;;;5105078;27;20688;-67
2021/12/19 08:42:46;;;;;;;0.10;0.10;;;7.70;99.90;;;;;;5104773;27;20646;-68
2021/12/19 08:45:15;;;;;;;0.10;0.10;;;7.80;99.90;;;;;;5106775;27;20647;-68
2021/12/19 08:47:43;;;;;;;0.10;0.10;;;7.80;99.90;;;;;;5107216;27;20994;-67
2021/12/19 08:50:12;;;;;;;0.10;0.10;;;7.80;99.90;;;;;;5105234;27;20622;-67
2021/12/19 08:52:39;;;;;;;0.10;0.10;;;7.80;99.90;;;;;;5102900;27;20739;-67
2021/12/19 08:55:09;;;;;;;0.10;0.10;;;7.80;99.90;;;;;;5108132;27;20709;-67
2021/12/19 08:57:36;;;;;;;0.10;0.10;;;7.80;99.90;;;;;;5106051;27;20668;-68
2021/12/19 09:00:06;;;;;;;0.10;0.10;;;7.80;99.90;;;;;;5102213;27;21178;-67
2021/12/19 09:02:33;;;;;;;0.00;0.00;;;7.80;99.90;;;;;;5116078;27;20650;-67
2021/12/19 09:05:02;;;;;;;0.07;0.07;;;7.80;99.90;;;;;;5122580;27;20601;-67
2021/12/19 09:07:30;;;;;;;0.10;0.10;;;7.80;99.90;;;;;;5106102;27;21219;-67
2021/12/19 09:09:57;;;;;;;0.10;0.10;;;7.80;99.90;;;;;;5106450;27;21247;-67
2021/12/19 09:12:25;;;;;;;0.10;0.10;;;7.80;99.90;;;;;;5105701;27;20646;-67
2021/12/19 09:14:52;;;;;;;0.10;0.10;;;7.90;99.90;;;;;;5108306;27;20748;-68
2021/12/19 09:17:19;;;;;;;0.00;0.00;;;7.90;99.90;;;;;;5117471;27;20637;-67
2021/12/19 09:19:46;;;;;;;0.10;0.10;;;7.90;99.90;;;;;;5117932;27;21191;-67
2021/12/19 09:22:15;;;;;;;0.10;0.10;;;7.90;99.90;;;;;;5097964;27;20658;-67
2021/12/19 09:24:42;;;;;;;0.10;0.10;;;8.00;99.90;;;;;;5105953;27;20687;-67
2021/12/19 09:27:09;;;;;;;0.10;0.10;;;7.90;99.90;;;;;;5124000;27;20637;-67
2021/12/19 09:29:38;;;;;;;0.10;0.10;;;7.90;99.90;;;;;;5107564;27;20682;-68
2021/12/19 09:32:06;;;;;;;0.10;0.10;;;8.00;99.90;;;;;;5101078;27;20681;-68
2021/12/19 09:34:34;;;;;;;0.00;0.00;;;7.90;99.90;;;;;;5115441;27;20749;-67
2021/12/19 09:37:02;;;;;;;0.00;0.00;;;8.00;99.90;;;;;;5097017;27;20702;-67
2021/12/19 09:39:32;;;;;;;0.10;0.10;;;8.00;99.90;;;;;;5098554;27;20677;-67
2021/12/19 09:42:09;;;;;;;0.10;0.10;;;7.90;99.90;;;;;;5097173;27;20643;-67
2021/12/19 09:44:37;;;;;;;0.10;0.10;;;8.00;99.90;;;;;;5124403;27;20652;-67
2021/12/19 09:47:07;;;;;;;0.10;0.10;;;8.00;99.90;;;;;;5097629;27;20646;-67
2021/12/19 09:49:36;;;;;;;0.00;0.00;;;7.90;99.90;;;;;;5117974;27;20622;-67
2021/12/19 09:52:07;;;;;;;0.00;0.00;;;8.00;99.90;;;;;;5105933;27;20654;-67
2021/12/19 09:54:36;;;;;;;0.00;0.00;;;7.90;99.90;;;;;;5107173;27;20654;-67
2021/12/19 09:57:07;;;;;;;0.10;0.10;;;8.00;99.90;;;;;;5106499;27;20664;-69
2021/12/19 09:59:34;;;;;;;0.10;0.10;;;8.00;99.90;;;;;;5124408;27;20614;-67
2021/12/19 10:02:01;;;;;;;0.10;0.10;;;7.90;99.90;;;;;;5106572;27;20673;-67
2021/12/19 10:04:35;;;;;;;0.00;0.00;;;7.90;99.90;;;;;;5121963;27;20678;-67
2021/12/19 10:07:08;;;;;;;0.10;0.10;;;7.90;99.90;;;;;;5117230;27;21075;-67
2021/12/19 10:09:38;;;;;;;0.10;0.10;;;7.90;99.90;;;;;;5106196;27;20622;-65
2021/12/19 10:12:37;;;;;;;0.10;0.10;;;7.90;99.90;;;;;;5103442;27;20721;-67
2021/12/19 10:15:08;;;;;;;0.10;0.10;;;7.80;99.90;;;;;;5122827;27;20669;-67
2021/12/19 10:17:37;;;;;;;0.00;0.00;;;7.80;99.90;;;;;;5103455;27;20618;-67
2021/12/19 10:20:07;;;;;;;0.10;0.10;;;7.80;99.90;;;;;;5094806;27;20690;-67
2021/12/19 10:22:37;;;;;;;0.10;0.10;;;7.80;99.90;;;;;;5105826;27;20654;-66
2021/12/19 10:25:23;;;;;;;0.10;0.10;;;7.80;99.90;;;;;;5103724;27;20693;-66
2021/12/19 10:27:53;;;;;;;0.10;0.10;;;7.80;99.90;;;;;;5102456;27;20617;-67
2021/12/19 10:30:25;;;;;;;0.10;0.10;;;7.80;99.90;;;;;;5103875;27;20619;-66
2021/12/19 10:32:54;;;;;;;0.10;0.10;;;7.80;99.90;;;;;;5103178;27;20706;-66
2021/12/19 10:35:24;;;;;;;0.10;0.10;;;7.90;99.90;;;;;;5110931;27;20651;-66
2021/12/19 10:37:52;;;;;;;0.10;0.10;;;7.80;99.90;;;;;;5100281;27;21266;-66
2021/12/19 10:40:25;;;;;;;0.00;0.00;;;7.80;99.90;;;;;;5122711;27;20635;-66
2021/12/19 10:42:58;;;;;;;0.10;0.10;;;7.80;99.90;;;;;;5122103;27;20634;-67
2021/12/19 10:45:30;;;;;;;0.00;0.00;;;7.80;99.90;;;;;;5118938;27;20610;-67
2021/12/19 10:48:29;;;;;;;0.10;0.10;;;7.80;99.90;;;;;;5119503;27;20598;-68
2021/12/19 10:51:00;;;;;;;0.10;0.10;;;7.80;99.90;;;;;;5042961;28;20616;-67
2021/12/19 10:53:34;;;;;;;0.10;0.10;;;7.90;99.90;;;;;;5087426;27;20650;-68
2021/12/19 10:56:06;;;;;;;0.10;0.10;;;7.90;99.90;;;;;;5107832;27;20649;-67
2021/12/19 10:58:38;;;;;;;0.10;0.10;;;8.00;99.90;;;;;;5098687;27;20655;-68
2021/12/19 11:01:13;;;;;;;0.10;0.10;;;8.00;99.90;;;;;;5112647;27;20729;-66
2021/12/19 11:03:55;;;;;;;0.10;0.10;;;8.00;99.90;;;;;;5116650;27;20642;-67
2021/12/19 11:06:26;;;;;;;0.10;0.10;;;8.00;99.90;;;;;;5093052;27;20626;-68
2021/12/19 11:08:55;;;;;;;0.10;0.10;;;8.00;99.90;;;;;;5102425;28;20627;-67
2021/12/19 11:11:48;;;;;;;0.10;0.10;;;8.00;99.90;;;;;;5094856;27;20633;-67
2021/12/19 11:14:17;;;;;;;0.10;0.10;;;8.00;99.90;;;;;;5100706;28;20655;-67
2021/12/19 11:16:45;;;;;;;0.10;0.10;;;7.90;99.90;;;;;;5105611;28;20626;-68
2021/12/19 11:19:13;;;;;;;0.00;0.00;;;8.00;99.90;;;;;;5094602;28;20626;-67
2021/12/19 11:21:42;;;;;;;0.10;0.10;;;8.00;99.90;;;;;;5101229;28;20657;-68
2021/12/19 11:24:14;;;;;;;0.10;0.10;;;8.00;99.90;;;;;;5101563;28;20637;-67
2021/12/19 11:26:45;;;;;;;0.10;0.10;;;8.00;99.90;;;;;;5102709;28;20633;-67
2021/12/19 11:29:14;;;;;;;0.10;0.10;;;8.00;99.90;;;;;;5122578;27;20674;-67
2021/12/19 11:31:46;;;;;;;0.10;0.10;;;7.90;99.90;;;;;;5096056;27;20669;-67
2021/12/19 11:34:27;;;;;;;0.00;0.00;;;7.90;99.90;;;;;;5117870;27;20618;-67
2021/12/19 11:36:59;;;;;;;0.00;0.00;;;7.90;99.90;;;;;;5106841;27;20637;-67
2021/12/19 11:39:30;;;;;;;0.00;0.00;;;7.90;99.90;;;;;;5105961;27;20618;-68
2021/12/19 11:42:15;;;;;;;0.00;0.00;;;7.90;99.90;;;;;;5106100;27;20655;-68
2021/12/19 11:44:56;;;;;;;0.10;0.10;;;8.00;99.90;;;;;;5139239;27;20648;-67
2021/12/19 11:47:38;;;;;;;0.10;0.10;;;7.90;99.90;;;;;;5117030;27;21240;-68
2021/12/19 11:50:19;;;;;;;0.10;0.10;;;7.90;99.90;;;;;;5105274;27;20641;-68
2021/12/19 11:52:45;;;;;;;0.00;0.00;;;7.90;99.90;;;;;;5111227;27;20672;-68
2021/12/19 11:55:20;;;;;;;0.10;0.10;;;8.00;99.90;;;;;;5123824;27;20649;-68
2021/12/19 11:58:22;;;;;;;0.10;0.10;;;7.90;99.90;;;;;;5103682;27;20623;-67
2021/12/19 12:00:55;;;;;;;0.10;0.10;;;7.90;99.90;;;;;;5116321;27;20618;-68
2021/12/19 12:03:26;;;;;;;0.10;0.10;;;8.00;99.90;;;;;;5123916;27;20710;-69
2021/12/19 12:06:14;;;;;;;0.10;0.10;;;7.90;99.90;;;;;;5104949;27;20621;-69
2021/12/19 12:09:10;;;;;;;0.10;0.10;;;7.90;99.90;;;;;;5112897;27;20621;-68
2021/12/19 12:11:39;;;;;;;0.10;0.10;;;7.90;99.90;;;;;;5105110;27;20739;-67
2021/12/19 12:14:23;;;;;;;0.10;0.10;;;7.90;99.90;;;;;;5095076;27;20689;-66
2021/12/19 12:16:55;;;;;;;0.10;0.10;;;7.90;99.90;;;;;;5124918;27;20617;-67
2021/12/19 12:19:38;;;;;;;0.10;0.10;;;7.90;99.90;;;;;;5105097;27;20626;-67
2021/12/19 12:22:31;;;;;;;0.10;0.10;;;7.90;99.90;;;;;;5121591;27;20686;-68
2021/12/19 12:25:15;;;;;;;0.10;0.10;;;7.90;99.90;;;;;;5100080;27;20601;-67
2021/12/19 12:27:45;;;;;;;0.03;0.03;;;7.90;99.90;;;;;;5103275;27;20618;-68
2021/12/19 12:30:13;;;;;;;0.10;0.10;;;7.90;99.90;;;;;;5104248;27;20677;-68
2021/12/19 12:32:40;;;;;;;0.10;0.10;;;7.80;99.90;;;;;;5108505;27;20688;-67
2021/12/19 12:35:11;;;;;;;0.00;0.00;;;7.90;99.90;;;;;;5121923;27;20650;-66
2021/12/19 12:37:40;;;;;;;0.10;0.10;;;7.80;99.90;;;;;;5116696;27;20670;-67
2021/12/19 12:40:24;;;;;;;0.10;0.10;;;7.80;99.90;;;;;;5100039;27;20614;-68
2021/12/19 12:43:09;;;;;;;0.10;0.10;;;7.80;99.90;;;;;;5118638;27;20630;-67
2021/12/19 12:46:01;;;;;;;0.00;0.00;;;7.80;99.90;;;;;;5102393;27;20622;-67
2021/12/19 12:48:38;;;;;;;0.10;0.10;;;7.80;99.90;;;;;;5097091;27;20622;-67
2021/12/19 12:51:08;;;;;;;0.10;0.10;;;7.80;99.90;;;;;;5102493;27;20654;-67
2021/12/19 12:53:37;;;;;;;0.10;0.10;;;7.80;99.90;;;;;;5091620;27;21579;-67
2021/12/19 12:56:11;;;;;;;0.10;0.10;;;7.80;99.90;;;;;;5118572;27;20649;-67
2021/12/19 12:58:40;;;;;;;0.00;0.00;;;7.80;99.90;;;;;;5107970;27;20670;-68
2021/12/19 13:01:23;;;;;;;0.00;0.00;;;7.80;99.90;;;;;;5121144;27;20691;-67
2021/12/19 13:03:59;;;;;;;0.10;0.10;;;7.70;99.90;;;;;;5121038;27;20606;-67
2021/12/19 13:06:49;;;;;;;0.10;0.10;;;7.80;99.90;;;;;;5100539;27;21147;-65
2021/12/19 13:09:19;;;;;;;0.00;0.00;;;7.70;99.90;;;;;;5103182;27;20625;-67
2021/12/19 13:11:49;;;;;;;0.03;0.03;;;7.80;99.90;;;;;;5102063;27;20750;-67
2021/12/19 13:14:20;;;;;;;0.10;0.10;;;7.70;99.90;;;;;;5117876;27;20629;-67
2021/12/19 13:16:49;;;;;;;0.10;0.10;;;7.70;99.90;;;;;;5095410;27;20647;-67
2021/12/19 13:19:43;;;;;;;0.00;0.00;;;7.70;99.90;;;;;;5090653;27;20619;-68
2021/12/19 13:22:13;;;;;;;0.00;0.00;;;7.70;99.90;;;;;;5099681;27;20764;-67
2021/12/19 13:24:41;;;;;;;0.00;0.00;;;7.70;99.90;;;;;;5099310;27;20663;-68
2021/12/19 13:27:16;;;;;;;0.10;0.10;;;7.70;99.90;;;;;;5102550;27;20626;-68
2021/12/19 13:29:55;;;;;;;0.10;0.10;;;7.70;99.90;;;;;;5095602;27;20693;-67
2021/12/19 13:32:27;;;;;;;0.10;0.10;;;7.70;99.90;;;;;;5112825;27;21003;-67
2021/12/19 13:34:54;;;;;;;0.00;0.00;;;7.70;99.90;;;;;;5091323;27;20611;-67
2021/12/19 13:37:22;;;;;;;0.00;0.00;;;7.70;99.90;;;;;;5100692;27;20706;-66
2021/12/19 13:40:07;;;;;;;0.00;0.00;;;7.70;99.90;;;;;;5122669;27;21171;-67
2021/12/19 13:42:45;;;;;;;0.10;0.10;;;7.70;99.90;;;;;;5101177;27;20685;-67
2021/12/19 13:45:31;;;;;;;0.00;0.00;;;7.70;99.90;;;;;;5121883;27;20606;-66
2021/12/19 13:48:00;;;;;;;0.00;0.00;;;7.70;99.90;;;;;;5096428;27;20631;-66
2021/12/19 13:50:32;;;;;;;0.00;0.00;;;7.70;99.90;;;;;;5102207;27;20638;-66
2021/12/19 13:52:59;;;;;;;0.10;0.10;;;7.80;99.90;;;;;;5095841;27;20765;-67
2021/12/19 13:55:26;;;;;;;0.10;0.10;;;7.70;99.90;;;;;;5103817;27;20661;-66
2021/12/19 13:58:09;;;;;;;0.10;0.10;;;7.80;99.90;;;;;;5102456;27;20680;-66
2021/12/19 14:00:38;;;;;;;0.00;0.00;;;7.80;99.90;;;;;;5100543;27;20622;-67
2021/12/19 14:03:05;;;;;;;0.10;0.10;;;7.80;99.90;;;;;;5119840;27;20646;-66
2021/12/19 14:05:39;;;;;;;0.10;0.10;;;7.80;99.90;;;;;;5120330;27;20602;-67